sensor_id;sensor_type;location;lat;lon;timestamp;pressure;altitude;pressure_sealevel;temperature;humidity
71903;BME280;59778;50.310;18.780;2023-07-08T00:00:59;99288.31;;;14.82;92.40
71903;BME280;59778;50.310;18.780;2023-07-08T00:16:21;99288.94;;;14.45;93.50
71903;BME280;59778;50.310;18.780;2023-07-08T00:31:44;99289.69;;;14.32;93.27
71903;BME280;59778;50.310;18.780;2023-07-08T00:47:09;99285.50;;;14.30;92.29
71903;BME280;59778;50.310;18.780;2023-07-08T01:02:34;99269.25;;;14.02;93.56
71903;BME280;59778;50.310;18.780;2023-07-08T01:17:56;99263.88;;;13.74;94.35
71903;BME280;59778;50.310;18.780;2023-07-08T01:33:20;99257.03;;;13.50;95.32
71903;BME280;59778;50.310;18.780;2023-07-08T01:48:52;99262.09;;;13.53;94.30
71903;BME280;59778;50.310;18.780;2023-07-08T02:04:13;99281.41;;;13.24;95.02
71903;BME280;59778;50.310;18.780;2023-07-08T02:19:35;99287.88;;;13.16;95.06
71903;BME280;59778;50.310;18.780;2023-07-08T02:34:56;99291.09;;;12.99;95.55
71903;BME280;59778;50.310;18.780;2023-07-08T02:50:17;99303.22;;;12.96;96.25
71903;BME280;59778;50.310;18.780;2023-07-08T03:05:39;99302.44;;;13.02;95.77
71903;BME280;59778;50.310;18.780;2023-07-08T03:21:01;99303.44;;;12.95;96.33
71903;BME280;59778;50.310;18.780;2023-07-08T03:36:22;99301.31;;;12.97;97.38
71903;BME280;59778;50.310;18.780;2023-07-08T03:51:43;99298.91;;;13.36;96.24
71903;BME280;59778;50.310;18.780;2023-07-08T04:07:05;99300.22;;;13.75;96.85
71903;BME280;59778;50.310;18.780;2023-07-08T04:22:26;99304.41;;;14.25;98.38
71903;BME280;59778;50.310;18.780;2023-07-08T04:37:48;99293.81;;;14.69;99.34
71903;BME280;59778;50.310;18.780;2023-07-08T04:53:10;99278.00;;;15.30;96.59
71903;BME280;59778;50.310;18.780;2023-07-08T05:08:32;99273.47;;;15.82;95.35
71903;BME280;59778;50.310;18.780;2023-07-08T05:23:53;99278.84;;;16.46;91.25
71903;BME280;59778;50.310;18.780;2023-07-08T05:39:14;99279.59;;;17.16;86.25
71903;BME280;59778;50.310;18.780;2023-07-08T05:54:39;99285.41;;;17.87;83.73
71903;BME280;59778;50.310;18.780;2023-07-08T06:10:01;99282.81;;;18.58;84.46
71903;BME280;59778;50.310;18.780;2023-07-08T06:25:22;99293.00;;;19.34;80.21
71903;BME280;59778;50.310;18.780;2023-07-08T06:40:44;99297.97;;;20.30;74.83
71903;BME280;59778;50.310;18.780;2023-07-08T06:56:06;99307.59;;;21.01;69.34
71903;BME280;59778;50.310;18.780;2023-07-08T07:11:27;99306.56;;;21.74;63.97
71903;BME280;59778;50.310;18.780;2023-07-08T07:26:49;99297.44;;;22.55;58.82
71903;BME280;59778;50.310;18.780;2023-07-08T07:42:11;99305.09;;;22.96;55.32
71903;BME280;59778;50.310;18.780;2023-07-08T07:57:32;99317.88;;;23.61;52.51
71903;BME280;59778;50.310;18.780;2023-07-08T08:12:54;99306.06;;;24.28;48.54
71903;BME280;59778;50.310;18.780;2023-07-08T08:28:15;99315.94;;;24.61;38.58
71903;BME280;59778;50.310;18.780;2023-07-08T08:43:38;99304.66;;;25.08;37.14
71903;BME280;59778;50.310;18.780;2023-07-08T09:14:58;99291.00;;;25.87;38.41
71903;BME280;59778;50.310;18.780;2023-07-08T09:30:21;99284.56;;;25.97;33.75
71903;BME280;59778;50.310;18.780;2023-07-08T09:45:45;99282.34;;;25.99;34.09
71903;BME280;59778;50.310;18.780;2023-07-08T10:01:26;99269.78;;;26.06;36.20
71903;BME280;59778;50.310;18.780;2023-07-08T10:16:48;99257.94;;;26.40;35.12
71903;BME280;59778;50.310;18.780;2023-07-08T11:04:44;99231.13;;;28.13;31.72
71903;BME280;59778;50.310;18.780;2023-07-08T11:19:32;99227.03;;;28.85;30.49
71903;BME280;59778;50.310;18.780;2023-07-08T11:34:57;99213.09;;;29.18;29.91
71903;BME280;59778;50.310;18.780;2023-07-08T11:50:23;99216.59;;;29.42;28.57
71903;BME280;59778;50.310;18.780;2023-07-08T12:05:45;99192.50;;;30.01;29.33
71903;BME280;59778;50.310;18.780;2023-07-08T12:21:07;99189.47;;;29.70;28.36
71903;BME280;59778;50.310;18.780;2023-07-08T12:36:30;99172.56;;;31.01;29.55
71903;BME280;59778;50.310;18.780;2023-07-08T12:51:51;99154.66;;;30.53;24.96
71903;BME280;59778;50.310;18.780;2023-07-08T13:07:28;99139.16;;;31.53;24.35
71903;BME280;59778;50.310;18.780;2023-07-08T13:22:59;99141.97;;;31.53;24.81
71903;BME280;59778;50.310;18.780;2023-07-08T13:38:23;99125.56;;;32.94;22.86
71903;BME280;59778;50.310;18.780;2023-07-08T13:53:57;99119.47;;;31.75;23.30
71903;BME280;59778;50.310;18.780;2023-07-08T14:09:20;99107.81;;;32.16;24.24
71903;BME280;59778;50.310;18.780;2023-07-08T14:24:42;99100.81;;;31.88;23.03
71903;BME280;59778;50.310;18.780;2023-07-08T14:40:33;99089.16;;;32.20;22.42
71903;BME280;59778;50.310;18.780;2023-07-08T14:55:56;99076.84;;;33.10;21.12
71903;BME280;59778;50.310;18.780;2023-07-08T15:11:19;99064.03;;;32.75;20.35
71903;BME280;59778;50.310;18.780;2023-07-08T15:26:46;99055.28;;;33.61;20.17
71903;BME280;59778;50.310;18.780;2023-07-08T15:42:11;99057.66;;;32.95;21.40
71903;BME280;59778;50.310;18.780;2023-07-08T15:57:34;99049.63;;;32.34;21.60
71903;BME280;59778;50.310;18.780;2023-07-08T16:12:58;99042.22;;;30.63;24.64
71903;BME280;59778;50.310;18.780;2023-07-08T16:28:38;99035.59;;;29.51;26.09
71903;BME280;59778;50.310;18.780;2023-07-08T16:44:11;99028.19;;;28.87;28.06
71903;BME280;59778;50.310;18.780;2023-07-08T16:59:33;99029.19;;;28.45;30.00
71903;BME280;59778;50.310;18.780;2023-07-08T17:14:54;99016.25;;;27.79;32.71
71903;BME280;59778;50.310;18.780;2023-07-08T17:30:16;99014.47;;;26.98;36.44
71903;BME280;59778;50.310;18.780;2023-07-08T17:45:43;99014.47;;;26.07;42.31
71903;BME280;59778;50.310;18.780;2023-07-08T18:01:09;99013.59;;;25.08;45.98
71903;BME280;59778;50.310;18.780;2023-07-08T18:16:31;99010.09;;;24.22;47.76
71903;BME280;59778;50.310;18.780;2023-07-08T18:31:52;99010.56;;;23.58;50.78
71903;BME280;59778;50.310;18.780;2023-07-08T18:47:13;99012.16;;;22.82;54.11
71903;BME280;59778;50.310;18.780;2023-07-08T19:02:36;99021.31;;;22.45;57.57
71903;BME280;59778;50.310;18.780;2023-07-08T19:18:01;99031.19;;;21.51;62.91
71903;BME280;59778;50.310;18.780;2023-07-08T19:33:23;99029.97;;;20.98;66.79
71903;BME280;59778;50.310;18.780;2023-07-08T19:48:45;99037.09;;;20.56;69.94
71903;BME280;59778;50.310;18.780;2023-07-08T20:04:06;99033.56;;;20.27;71.17
71903;BME280;59778;50.310;18.780;2023-07-08T20:19:28;99044.47;;;19.72;72.26
71903;BME280;59778;50.310;18.780;2023-07-08T20:34:50;99052.66;;;19.27;73.44
71903;BME280;59778;50.310;18.780;2023-07-08T20:50:20;99055.28;;;18.82;75.16
71903;BME280;59778;50.310;18.780;2023-07-08T21:05:41;99053.41;;;17.95;80.17
71903;BME280;59778;50.310;18.780;2023-07-08T21:21:03;99071.69;;;17.89;81.64
71903;BME280;59778;50.310;18.780;2023-07-08T21:36:29;99074.16;;;17.79;81.65
71903;BME280;59778;50.310;18.780;2023-07-08T21:51:51;99078.53;;;17.68;80.96
71903;BME280;59778;50.310;18.780;2023-07-08T22:07:13;99072.72;;;17.28;81.71
71903;BME280;59778;50.310;18.780;2023-07-08T22:22:35;99069.09;;;16.98;84.09
71903;BME280;59778;50.310;18.780;2023-07-08T22:37:57;99066.78;;;16.95;83.74
71903;BME280;59778;50.310;18.780;2023-07-08T22:53:19;99074.94;;;16.83;82.21
71903;BME280;59778;50.310;18.780;2023-07-08T23:08:41;99073.41;;;16.69;82.77
71903;BME280;59778;50.310;18.780;2023-07-08T23:24:03;99079.34;;;16.41;83.42
71903;BME280;59778;50.310;18.780;2023-07-08T23:39:25;99080.53;;;16.27;84.58
71903;BME280;59778;50.310;18.780;2023-07-08T23:54:46;99081.94;;;16.12;84.51
